Time;durP1;ratioP1;P1;durP2;ratioP2;P2;SDS_P1;SDS_P2;PMS_P1;PMS_P2;Temp;Humidity;BMP_temperature;BMP_pressure;BME280_temperature;BME280_humidity;BME280_pressure;Samples;Min_cycle;Max_cycle;Signal;HPM_P1;HPM_P2
2020/12/09 00:01:03;;;;;;;53.35;23.23;;;;;;;;;;8294047;28;20383;-76
2020/12/09 00:05:11;;;;;;;56.75;24.10;;;;;;;;;;8293761;28;20485;-77
2020/12/09 00:09:19;;;;;;;41.25;17.60;;;;;;;;;;8293707;28;20482;-76
2020/12/09 00:13:21;;;;;;;53.83;22.15;;;;;;;;;;8293667;28;20467;-76
2020/12/09 00:17:25;;;;;;;42.78;18.58;;;;;;;;;;8293341;28;20409;-76
2020/12/09 00:21:28;;;;;;;36.08;16.27;;;;;;;;;;8275270;28;20407;-77
2020/12/09 00:25:31;;;;;;;43.75;19.10;;;;;;;;;;8292969;28;20463;-77
2020/12/09 00:29:33;;;;;;;44.13;20.08;;;;;;;;;;8293113;28;20479;-76
2020/12/09 00:33:36;;;;;;;37.30;17.20;;;;;;;;;;8291923;28;20385;-76
2020/12/09 00:37:39;;;;;;;33.70;16.55;;;;;;;;;;8292338;28;20083;-76
2020/12/09 00:41:41;;;;;;;55.47;23.60;;;;;;;;;;8292648;28;20364;-77
2020/12/09 00:45:45;;;;;;;45.80;20.30;;;;;;;;;;8274133;28;20490;-76
2020/12/09 00:54:09;;;;;;;50.55;21.33;;;;;;;;;;8273863;28;20079;-76
2020/12/09 00:58:14;;;;;;;54.15;22.48;;;;;;;;;;8273137;28;20379;-76
2020/12/09 01:02:18;;;;;;;66.20;28.80;;;;;;;;;;8273769;28;20406;-76
2020/12/09 01:06:25;;;;;;;49.33;22.02;;;;;;;;;;8273810;28;20402;-76
2020/12/09 01:10:27;;;;;;;59.97;26.75;;;;;;;;;;8274339;28;20463;-77
2020/12/09 01:14:30;;;;;;;73.47;28.20;;;;;;;;;;8291721;28;20467;-76
2020/12/09 01:18:33;;;;;;;99.45;39.22;;;;;;;;;;8273189;28;20056;-77
2020/12/09 01:22:36;;;;;;;103.47;39.78;;;;;;;;;;8291607;28;20497;-76
2020/12/09 01:26:39;;;;;;;63.97;27.95;;;;;;;;;;8290920;28;20071;-76
2020/12/09 01:30:43;;;;;;;50.08;22.88;;;;;;;;;;8273499;28;20421;-76
2020/12/09 01:34:46;;;;;;;50.28;25.58;;;;;;;;;;8290784;28;20482;-76
2020/12/09 01:38:49;;;;;;;29.27;15.80;;;;;;;;;;8272559;28;20344;-76
2020/12/09 01:42:53;;;;;;;71.30;27.80;;;;;;;;;;8290762;28;20079;-76
2020/12/09 01:46:57;;;;;;;42.58;19.10;;;;;;;;;;8290312;28;20374;-76
2020/12/09 01:51:00;;;;;;;50.22;22.13;;;;;;;;;;8272691;28;20082;-76
2020/12/09 01:55:03;;;;;;;36.70;17.35;;;;;;;;;;8290127;28;20368;-76
2020/12/09 01:59:05;;;;;;;37.58;18.55;;;;;;;;;;8290485;28;20493;-76
2020/12/09 02:03:08;;;;;;;48.75;21.92;;;;;;;;;;8288718;28;20410;-76
2020/12/09 02:07:11;;;;;;;41.33;18.83;;;;;;;;;;8289330;28;20460;-76
2020/12/09 02:11:14;;;;;;;40.58;18.88;;;;;;;;;;8289846;28;20471;-76
2020/12/09 02:15:17;;;;;;;33.83;14.85;;;;;;;;;;8288939;28;20505;-77
2020/12/09 02:19:21;;;;;;;37.45;16.15;;;;;;;;;;8288707;28;20052;-77
2020/12/09 02:23:25;;;;;;;23.40;12.27;;;;;;;;;;8272046;28;20489;-76
2020/12/09 02:27:28;;;;;;;34.72;18.52;;;;;;;;;;8289155;28;20052;-76
2020/12/09 02:31:31;;;;;;;41.00;19.05;;;;;;;;;;8289182;28;20057;-76
2020/12/09 02:35:35;;;;;;;35.63;16.23;;;;;;;;;;8291524;28;20332;-76
2020/12/09 02:39:38;;;;;;;35.28;16.52;;;;;;;;;;8289619;28;20391;-76
2020/12/09 02:43:41;;;;;;;47.75;21.33;;;;;;;;;;8289017;28;20405;-77
2020/12/09 02:47:44;;;;;;;27.73;13.85;;;;;;;;;;8289294;28;20045;-76
2020/12/09 02:51:47;;;;;;;35.47;17.48;;;;;;;;;;8289473;28;20079;-76
2020/12/09 02:55:50;;;;;;;41.22;18.17;;;;;;;;;;8291819;28;20048;-76
2020/12/09 02:59:53;;;;;;;24.23;12.18;;;;;;;;;;8295994;28;20386;-76
2020/12/09 03:03:56;;;;;;;30.85;15.10;;;;;;;;;;8278062;28;20501;-76
2020/12/09 03:07:59;;;;;;;28.05;14.07;;;;;;;;;;8277196;28;20464;-76
2020/12/09 03:12:02;;;;;;;27.10;12.65;;;;;;;;;;8295664;28;20470;-76
2020/12/09 03:16:05;;;;;;;29.48;13.23;;;;;;;;;;8277952;28;20052;-77
2020/12/09 03:20:08;;;;;;;26.58;13.32;;;;;;;;;;8296228;28;20483;-76
2020/12/09 03:24:11;;;;;;;32.80;15.70;;;;;;;;;;8278675;28;20482;-76
2020/12/09 03:28:14;;;;;;;28.17;13.68;;;;;;;;;;8278371;28;20479;-76
2020/12/09 03:32:17;;;;;;;22.67;11.65;;;;;;;;;;8295297;28;20375;-77
2020/12/09 03:36:20;;;;;;;25.70;13.07;;;;;;;;;;8296203;28;20048;-77
2020/12/09 03:40:23;;;;;;;26.58;13.43;;;;;;;;;;8295053;28;20470;-77
2020/12/09 03:44:27;;;;;;;30.02;13.38;;;;;;;;;;8294687;28;20131;-76
2020/12/09 03:48:30;;;;;;;28.60;13.60;;;;;;;;;;8295322;28;20473;-77
2020/12/09 03:52:33;;;;;;;36.08;17.52;;;;;;;;;;8295303;28;20048;-77
2020/12/09 03:56:36;;;;;;;38.80;19.17;;;;;;;;;;8275731;28;20455;-76
2020/12/09 04:00:39;;;;;;;35.67;15.40;;;;;;;;;;8293741;28;20560;-76
2020/12/09 04:04:42;;;;;;;32.15;17.08;;;;;;;;;;8293820;28;20371;-77
2020/12/09 04:08:45;;;;;;;25.35;13.05;;;;;;;;;;8111103;28;5000785;-77
2020/12/09 04:12:48;;;;;;;29.15;14.30;;;;;;;;;;8293373;28;20505;-76
2020/12/09 04:16:52;;;;;;;31.02;15.88;;;;;;;;;;8292920;28;20375;-76
2020/12/09 04:20:55;;;;;;;26.00;13.40;;;;;;;;;;8293068;28;20102;-76
2020/12/09 04:24:58;;;;;;;33.58;15.18;;;;;;;;;;8293180;28;20418;-76
2020/12/09 04:29:01;;;;;;;37.40;18.27;;;;;;;;;;8291703;28;20471;-76
2020/12/09 04:33:04;;;;;;;29.10;13.77;;;;;;;;;;8290772;28;20398;-76
2020/12/09 04:37:11;;;;;;;23.83;12.75;;;;;;;;;;8293036;28;20387;-76
2020/12/09 04:41:14;;;;;;;38.20;13.45;;;;;;;;;;8290991;28;20052;-77
2020/12/09 04:45:18;;;;;;;29.15;15.13;;;;;;;;;;8294556;28;20410;-76
2020/12/09 04:49:24;;;;;;;35.83;17.50;;;;;;;;;;8244559;28;20060;-76
2020/12/09 04:53:29;;;;;;;25.65;12.00;;;;;;;;;;8307746;28;20385;-76
2020/12/09 04:57:42;;;;;;;31.95;14.50;;;;;;;;;;8325059;28;20405;-76
2020/12/09 05:02:05;;;;;;;36.55;17.98;;;;;;;;;;8325519;28;20056;-76
2020/12/09 05:06:10;;;;;;;29.88;15.23;;;;;;;;;;8325484;28;20401;-76
2020/12/09 05:10:16;;;;;;;32.13;16.98;;;;;;;;;;8325079;28;20409;-76
2020/12/09 05:14:22;;;;;;;31.23;13.70;;;;;;;;;;8307028;28;20414;-76
2020/12/09 05:18:42;;;;;;;28.60;14.80;;;;;;;;;;8306338;28;20510;-77
2020/12/09 05:22:46;;;;;;;54.42;23.25;;;;;;;;;;8324130;28;20493;-77
2020/12/09 05:26:50;;;;;;;37.03;18.88;;;;;;;;;;8324768;28;20052;-77
2020/12/09 05:30:53;;;;;;;38.10;17.38;;;;;;;;;;8324370;28;20398;-76
2020/12/09 05:34:56;;;;;;;35.95;17.73;;;;;;;;;;8324657;28;20352;-77
2020/12/09 05:39:05;;;;;;;37.70;15.07;;;;;;;;;;8323829;28;20500;-77
2020/12/09 05:43:09;;;;;;;35.45;13.50;;;;;;;;;;8325969;28;20462;-77
2020/12/09 05:47:12;;;;;;;33.88;13.77;;;;;;;;;;8325699;28;20463;-76
2020/12/09 05:51:15;;;;;;;38.60;12.73;;;;;;;;;;8326581;28;20474;-76
2020/12/09 05:55:22;;;;;;;28.25;12.65;;;;;;;;;;8328561;28;20047;-76
2020/12/09 05:59:46;;;;;;;25.17;12.15;;;;;;;;;;8260431;28;20056;-77
2020/12/09 06:03:53;;;;;;;28.13;13.15;;;;;;;;;;8199021;28;20401;-77
2020/12/09 06:07:57;;;;;;;30.05;12.70;;;;;;;;;;8268943;28;20358;-76
2020/12/09 06:12:02;;;;;;;26.00;13.05;;;;;;;;;;8312101;28;20371;-76
2020/12/09 06:16:07;;;;;;;32.88;13.93;;;;;;;;;;8250695;28;20064;-77
2020/12/09 06:20:11;;;;;;;24.23;12.30;;;;;;;;;;8324122;28;20406;-76
2020/12/09 06:24:13;;;;;;;25.33;12.10;;;;;;;;;;8330000;28;20040;-76
2020/12/09 06:28:19;;;;;;;32.20;13.48;;;;;;;;;;8254158;28;20052;-76
2020/12/09 06:32:24;;;;;;;23.88;11.65;;;;;;;;;;8195988;28;20054;-77
2020/12/09 06:36:31;;;;;;;21.20;11.38;;;;;;;;;;8311603;28;20475;-77
2020/12/09 06:40:36;;;;;;;24.15;12.63;;;;;;;;;;8310425;28;20505;-77
2020/12/09 06:44:49;;;;;;;30.35;11.15;;;;;;;;;;8330751;28;20383;-77
2020/12/09 06:48:52;;;;;;;23.27;11.57;;;;;;;;;;8333412;28;20459;-77
2020/12/09 06:53:23;;;;;;;29.70;13.40;;;;;;;;;;8330203;28;20075;-76
2020/12/09 06:57:29;;;;;;;30.67;13.20;;;;;;;;;;8323804;28;20501;-77
2020/12/09 07:02:02;;;;;;;25.90;11.80;;;;;;;;;;8323794;28;20467;-77
2020/12/09 07:06:17;;;;;;;25.30;11.55;;;;;;;;;;8306357;28;20467;-77
2020/12/09 07:10:20;;;;;;;33.10;13.07;;;;;;;;;;8327684;28;20482;-77
2020/12/09 07:14:23;;;;;;;29.52;13.57;;;;;;;;;;8328204;28;20489;-77
2020/12/09 07:18:27;;;;;;;25.35;12.27;;;;;;;;;;8328745;28;20048;-77
2020/12/09 07:22:30;;;;;;;34.15;15.48;;;;;;;;;;8311597;28;20451;-77
2020/12/09 07:26:33;;;;;;;26.45;11.82;;;;;;;;;;8309819;28;20470;-78
2020/12/09 07:30:36;;;;;;;25.30;11.68;;;;;;;;;;8325150;28;20067;-77
2020/12/09 07:34:59;;;;;;;30.00;12.63;;;;;;;;;;8309063;28;20500;-77
2020/12/09 07:39:03;;;;;;;26.38;11.88;;;;;;;;;;8294007;28;20414;-76
2020/12/09 07:43:08;;;;;;;33.33;13.13;;;;;;;;;;8328633;28;20482;-77
2020/12/09 07:47:13;;;;;;;28.13;13.10;;;;;;;;;;8331949;28;20413;-77
2020/12/09 07:51:16;;;;;;;27.73;11.70;;;;;;;;;;8332896;28;20082;-77
2020/12/09 07:55:19;;;;;;;27.30;12.85;;;;;;;;;;8329603;28;20416;-77
2020/12/09 07:59:22;;;;;;;25.38;11.60;;;;;;;;;;8311496;28;20378;-77
2020/12/09 08:03:28;;;;;;;22.10;11.63;;;;;;;;;;8328278;28;20463;-77
2020/12/09 08:07:31;;;;;;;26.73;11.70;;;;;;;;;;8327500;28;20398;-77
2020/12/09 08:11:44;;;;;;;30.25;12.75;;;;;;;;;;8294250;28;20523;-77
2020/12/09 08:16:11;;;;;;;35.38;17.33;;;;;;;;;;8327976;28;20466;-77
2020/12/09 08:20:15;;;;;;;101.70;38.75;;;;;;;;;;8231745;28;20048;-77
2020/12/09 08:24:18;;;;;;;1301.25;351.60;;;;;;;;;;8327739;28;20376;-77
2020/12/09 08:28:27;;;;;;;183.57;58.28;;;;;;;;;;8326876;28;20497;-77
2020/12/09 08:32:30;;;;;;;;;;;;;;;;;;8309086;28;20490;-77
2020/12/09 08:36:39;;;;;;;109.53;40.85;;;;;;;;;;8311551;28;20373;-77
2020/12/09 08:40:42;;;;;;;103.75;31.38;;;;;;;;;;8328503;28;20062;-77
2020/12/09 08:44:45;;;;;;;123.35;36.83;;;;;;;;;;8174020;28;20356;-76
2020/12/09 08:48:49;;;;;;;97.13;34.60;;;;;;;;;;8327868;28;20409;-76
2020/12/09 08:52:52;;;;;;;140.82;51.28;;;;;;;;;;8323306;28;20478;-77
2020/12/09 08:56:55;;;;;;;120.22;48.97;;;;;;;;;;8325496;28;20386;-77
2020/12/09 09:01:01;;;;;;;108.00;45.85;;;;;;;;;;8325321;28;20374;-77
2020/12/09 09:05:07;;;;;;;77.45;30.92;;;;;;;;;;8252882;28;20489;-77
2020/12/09 09:09:09;;;;;;;97.38;40.78;;;;;;;;;;8224535;28;20356;-76
2020/12/09 09:13:13;;;;;;;139.70;57.33;;;;;;;;;;8212678;28;20418;-77
2020/12/09 09:17:17;;;;;;;94.70;38.75;;;;;;;;;;8324640;28;20496;-77
2020/12/09 09:21:37;;;;;;;118.82;37.92;;;;;;;;;;8324694;28;20470;-76
2020/12/09 09:25:40;;;;;;;280.95;84.45;;;;;;;;;;8324321;28;20052;-77
2020/12/09 09:29:43;;;;;;;235.35;75.35;;;;;;;;;;8306203;28;20490;-76
2020/12/09 09:33:46;;;;;;;119.57;51.88;;;;;;;;;;8306166;28;20367;-78
2020/12/09 09:37:51;;;;;;;104.97;37.85;;;;;;;;;;8219168;28;20488;-77
2020/12/09 09:41:57;;;;;;;111.00;46.92;;;;;;;;;;8212844;28;20458;-77
2020/12/09 09:46:01;;;;;;;52.20;24.42;;;;;;;;;;8323239;28;20390;-77
2020/12/09 09:50:09;;;;;;;31.52;14.50;;;;;;;;;;8321935;28;20374;-77
2020/12/09 09:54:14;;;;;;;36.97;16.92;;;;;;;;;;8290765;28;20390;-76
2020/12/09 09:58:18;;;;;;;47.72;24.08;;;;;;;;;;8305261;28;20356;-76
2020/12/09 10:02:45;;;;;;;51.22;24.95;;;;;;;;;;8314129;28;20040;-77
2020/12/09 10:06:50;;;;;;;50.47;23.85;;;;;;;;;;8323050;28;20486;-76
2020/12/09 10:10:53;;;;;;;34.88;17.55;;;;;;;;;;8250268;28;20458;-77
2020/12/09 10:14:56;;;;;;;32.95;15.10;;;;;;;;;;8322594;28;20378;-77
2020/12/09 10:19:02;;;;;;;33.15;17.98;;;;;;;;;;8322042;28;20478;-76
2020/12/09 10:23:08;;;;;;;31.67;14.32;;;;;;;;;;8257481;28;20374;-77
2020/12/09 10:27:12;;;;;;;30.45;13.77;;;;;;;;;;8290089;28;20481;-77
2020/12/09 10:31:15;;;;;;;26.38;13.63;;;;;;;;;;8300828;28;20060;-77
2020/12/09 10:35:19;;;;;;;26.98;13.23;;;;;;;;;;8323285;28;20371;-78
2020/12/09 10:39:23;;;;;;;27.27;12.55;;;;;;;;;;8305086;28;20378;-77
2020/12/09 10:43:27;;;;;;;36.33;11.00;;;;;;;;;;8308073;28;20500;-78
2020/12/09 10:47:42;;;;;;;34.20;15.88;;;;;;;;;;8219393;28;20476;-76
2020/12/09 10:51:54;;;;;;;32.78;15.45;;;;;;;;;;8184772;28;20468;-76
2020/12/09 10:55:59;;;;;;;49.63;24.25;;;;;;;;;;8220182;28;20106;-77
2020/12/09 11:00:05;;;;;;;38.58;14.10;;;;;;;;;;8187896;28;20372;-77
2020/12/09 11:04:10;;;;;;;29.60;13.88;;;;;;;;;;8219260;28;20468;-77
2020/12/09 11:08:16;;;;;;;32.50;13.68;;;;;;;;;;8220265;28;20368;-77
2020/12/09 11:12:23;;;;;;;34.38;14.52;;;;;;;;;;8204333;28;20384;-77
2020/12/09 11:16:27;;;;;;;32.20;16.40;;;;;;;;;;8198996;28;20475;-76
2020/12/09 11:20:30;;;;;;;30.73;14.50;;;;;;;;;;8277048;28;20056;-77
2020/12/09 11:24:33;;;;;;;43.72;21.08;;;;;;;;;;8295199;28;20463;-77
2020/12/09 11:28:36;;;;;;;35.15;15.05;;;;;;;;;;8294715;28;20509;-78
2020/12/09 11:32:39;;;;;;;28.55;14.23;;;;;;;;;;8295036;28;20497;-77
2020/12/09 11:36:43;;;;;;;39.90;17.05;;;;;;;;;;8309569;28;20405;-77
2020/12/09 11:40:46;;;;;;;45.13;20.63;;;;;;;;;;8309412;28;20447;-77
2020/12/09 11:44:53;;;;;;;36.65;15.60;;;;;;;;;;8294311;28;20404;-77
2020/12/09 11:48:57;;;;;;;31.05;14.70;;;;;;;;;;8241323;28;20379;-77
2020/12/09 11:53:01;;;;;;;33.75;16.27;;;;;;;;;;8308043;28;20508;-77
2020/12/09 11:57:04;;;;;;;38.08;17.88;;;;;;;;;;8326802;28;20404;-77
2020/12/09 12:01:09;;;;;;;37.05;16.13;;;;;;;;;;8326020;28;20048;-77
2020/12/09 12:05:14;;;;;;;37.42;16.58;;;;;;;;;;8324386;28;20386;-76
2020/12/09 12:09:16;;;;;;;41.55;17.83;;;;;;;;;;8325107;28;20066;-76
2020/12/09 12:13:19;;;;;;;29.65;14.68;;;;;;;;;;8326206;28;20059;-77
2020/12/09 12:17:22;;;;;;;34.67;14.48;;;;;;;;;;8309201;28;20374;-77
2020/12/09 12:21:25;;;;;;;37.13;16.45;;;;;;;;;;8309679;28;20401;-77
2020/12/09 12:25:28;;;;;;;38.17;16.95;;;;;;;;;;8308036;28;20044;-77
2020/12/09 12:29:32;;;;;;;39.40;17.63;;;;;;;;;;8324528;28;20462;-77
2020/12/09 12:33:35;;;;;;;75.10;31.67;;;;;;;;;;8326816;28;20052;-77
2020/12/09 12:37:38;;;;;;;64.38;30.95;;;;;;;;;;8326290;28;20474;-77
2020/12/09 12:41:45;;;;;;;431.13;163.55;;;;;;;;;;8326337;28;20070;-78
2020/12/09 12:45:50;;;;;;;1160.43;432.67;;;;;;;;;;8325877;28;20490;-77
2020/12/09 12:49:52;;;;;;;818.53;294.20;;;;;;;;;;8307499;28;20513;-77
2020/12/09 12:53:55;;;;;;;695.03;237.60;;;;;;;;;;8308970;28;20372;-77
2020/12/09 12:57:58;;;;;;;519.67;146.52;;;;;;;;;;8329646;28;20391;-77
2020/12/09 13:02:04;;;;;;;421.63;102.15;;;;;;;;;;8325255;28;20378;-77
2020/12/09 13:06:07;;;;;;;120.90;41.85;;;;;;;;;;8325975;28;20115;-77
2020/12/09 13:10:10;;;;;;;83.63;27.73;;;;;;;;;;8292686;28;20515;-77
2020/12/09 13:14:15;;;;;;;162.25;49.92;;;;;;;;;;8308842;28;20494;-77
2020/12/09 13:18:17;;;;;;;180.05;47.72;;;;;;;;;;8186533;28;20405;-77
2020/12/09 13:22:24;;;;;;;148.88;48.17;;;;;;;;;;8279098;28;20394;-76
2020/12/09 13:26:28;;;;;;;62.65;29.60;;;;;;;;;;8306914;28;20474;-77
2020/12/09 13:30:31;;;;;;;113.70;38.83;;;;;;;;;;8310025;28;20351;-77
2020/12/09 13:34:34;;;;;;;123.25;42.25;;;;;;;;;;8307527;28;20412;-77
2020/12/09 13:38:38;;;;;;;118.70;41.65;;;;;;;;;;8310889;28;20470;-78
2020/12/09 13:42:43;;;;;;;176.38;55.90;;;;;;;;;;8344562;28;20472;-78
2020/12/09 13:46:49;;;;;;;82.78;31.40;;;;;;;;;;8323058;28;20374;-78
2020/12/09 13:50:52;;;;;;;52.85;24.80;;;;;;;;;;8349186;28;20048;-77
2020/12/09 13:54:55;;;;;;;67.70;27.13;;;;;;;;;;8338209;28;20056;-76
2020/12/09 13:59:03;;;;;;;58.35;26.17;;;;;;;;;;8332006;28;20459;-77
2020/12/09 14:03:06;;;;;;;44.22;20.13;;;;;;;;;;8330089;28;20481;-77
2020/12/09 14:07:09;;;;;;;41.47;17.30;;;;;;;;;;8327947;28;20390;-77
2020/12/09 14:11:11;;;;;;;45.67;19.65;;;;;;;;;;8324607;28;20483;-78
2020/12/09 14:15:18;;;;;;;34.17;15.65;;;;;;;;;;8329468;28;20360;-77
2020/12/09 14:19:24;;;;;;;45.08;22.80;;;;;;;;;;8310190;28;20455;-76
2020/12/09 14:23:27;;;;;;;44.20;19.70;;;;;;;;;;8313011;28;20063;-77
2020/12/09 14:27:30;;;;;;;39.58;15.75;;;;;;;;;;8326767;28;20463;-77
2020/12/09 14:31:34;;;;;;;52.20;20.00;;;;;;;;;;8330056;28;20047;-77
2020/12/09 14:35:40;;;;;;;75.78;28.77;;;;;;;;;;8331157;28;20387;-77
2020/12/09 14:39:43;;;;;;;129.02;44.58;;;;;;;;;;8329391;28;20378;-76
2020/12/09 14:43:49;;;;;;;641.65;220.98;;;;;;;;;;8326986;28;20048;-76
2020/12/09 14:48:05;;;;;;;98.38;33.33;;;;;;;;;;8287769;28;20476;-77
2020/12/09 14:52:46;;;;;;;313.73;72.15;;;;;;;;;;8288116;28;20390;-77
2020/12/09 14:57:21;;;;;;;78.60;27.85;;;;;;;;;;8294568;28;20499;-76
2020/12/09 15:01:44;;;;;;;57.00;22.40;;;;;;;;;;8295317;28;20390;-76
2020/12/09 15:05:48;;;;;;;559.88;112.18;;;;;;;;;;8295624;28;20410;-76
2020/12/09 15:10:04;;;;;;;1073.20;275.65;;;;;;;;;;8299498;28;20493;-77
2020/12/09 15:14:27;;;;;;;286.38;64.05;;;;;;;;;;8274868;28;20381;-77
2020/12/09 15:18:31;;;;;;;443.00;102.05;;;;;;;;;;8270404;28;20376;-76
2020/12/09 15:22:34;;;;;;;203.68;49.45;;;;;;;;;;8324005;28;20492;-76
2020/12/09 15:26:37;;;;;;;170.23;42.40;;;;;;;;;;8309055;28;20462;-78
2020/12/09 15:30:41;;;;;;;256.35;62.38;;;;;;;;;;8302825;28;20052;-77
2020/12/09 15:34:45;;;;;;;175.50;49.92;;;;;;;;;;8299345;28;20364;-76
2020/12/09 15:38:48;;;;;;;95.93;34.10;;;;;;;;;;8296023;28;20490;-77
2020/12/09 15:42:51;;;;;;;213.13;61.20;;;;;;;;;;8296919;28;20389;-77
2020/12/09 15:46:56;;;;;;;123.20;38.72;;;;;;;;;;8292169;28;20497;-77
2020/12/09 15:50:59;;;;;;;227.80;66.47;;;;;;;;;;8294737;28;20506;-77
2020/12/09 15:55:02;;;;;;;74.55;28.08;;;;;;;;;;8294567;28;20364;-77
2020/12/09 15:59:06;;;;;;;101.60;31.67;;;;;;;;;;8293905;28;20493;-77
2020/12/09 16:03:09;;;;;;;255.38;64.20;;;;;;;;;;8292729;28;20048;-77
2020/12/09 16:07:12;;;;;;;236.45;63.22;;;;;;;;;;8294303;28;20410;-77
2020/12/09 16:11:16;;;;;;;111.00;37.38;;;;;;;;;;8293387;28;20478;-77
2020/12/09 16:15:19;;;;;;;224.13;60.90;;;;;;;;;;8276707;28;20950;-77
2020/12/09 16:19:22;;;;;;;109.22;35.10;;;;;;;;;;8282032;28;20656;-77
2020/12/09 16:23:25;;;;;;;113.30;35.50;;;;;;;;;;8327005;28;20356;-77
2020/12/09 16:27:29;;;;;;;75.97;29.52;;;;;;;;;;8277114;28;20494;-77
2020/12/09 16:31:34;;;;;;;63.60;25.38;;;;;;;;;;8293111;28;20070;-77
2020/12/09 16:35:38;;;;;;;302.70;88.18;;;;;;;;;;8279345;28;20393;-77
2020/12/09 16:39:43;;;;;;;214.32;64.07;;;;;;;;;;8324862;28;20502;-76
2020/12/09 16:43:46;;;;;;;192.52;54.63;;;;;;;;;;8325661;28;20474;-77
2020/12/09 16:47:48;;;;;;;221.77;64.63;;;;;;;;;;8305970;28;20451;-76
2020/12/09 16:51:51;;;;;;;164.73;52.35;;;;;;;;;;8296543;28;20378;-76
2020/12/09 16:55:54;;;;;;;67.05;26.38;;;;;;;;;;8306650;28;20498;-77
2020/12/09 16:59:57;;;;;;;91.18;32.13;;;;;;;;;;8295010;28;20466;-76
2020/12/09 17:04:00;;;;;;;55.67;22.45;;;;;;;;;;8323591;28;20378;-76
2020/12/09 17:08:03;;;;;;;55.55;25.00;;;;;;;;;;8305459;28;20483;-76
2020/12/09 17:12:08;;;;;;;55.53;22.80;;;;;;;;;;8280173;28;20375;-77
2020/12/09 17:16:12;;;;;;;52.83;20.75;;;;;;;;;;8243207;28;20355;-77
2020/12/09 17:20:15;;;;;;;42.70;18.85;;;;;;;;;;8279411;28;20544;-76
2020/12/09 17:24:19;;;;;;;50.90;20.67;;;;;;;;;;8323820;28;20363;-77
2020/12/09 17:28:22;;;;;;;70.07;22.80;;;;;;;;;;8298594;28;20052;-77
2020/12/09 17:32:25;;;;;;;61.78;22.85;;;;;;;;;;8322379;28;20467;-76
2020/12/09 17:36:28;;;;;;;75.15;27.38;;;;;;;;;;8320926;28;20363;-79
2020/12/09 17:40:32;;;;;;;60.85;24.63;;;;;;;;;;8321877;28;20056;-77
2020/12/09 17:44:40;;;;;;;52.50;20.95;;;;;;;;;;8319645;28;20785;-76
2020/12/09 17:48:44;;;;;;;56.75;24.08;;;;;;;;;;8273928;28;20390;-75
2020/12/09 17:52:47;;;;;;;65.35;27.58;;;;;;;;;;8304215;28;20482;-76
2020/12/09 17:56:50;;;;;;;54.55;22.55;;;;;;;;;;8317054;28;20483;-76
2020/12/09 18:00:55;;;;;;;52.00;21.00;;;;;;;;;;8226178;28;20401;-76
2020/12/09 18:05:01;;;;;;;50.42;22.85;;;;;;;;;;8320833;28;20513;-77
2020/12/09 18:09:06;;;;;;;56.92;22.40;;;;;;;;;;8289045;28;20501;-76
2020/12/09 18:13:09;;;;;;;48.30;19.35;;;;;;;;;;8248498;28;20502;-76
2020/12/09 18:17:12;;;;;;;98.82;22.83;;;;;;;;;;8289165;28;20475;-78
2020/12/09 18:21:15;;;;;;;43.85;19.00;;;;;;;;;;8256347;28;20360;-77
2020/12/09 18:25:18;;;;;;;75.22;23.83;;;;;;;;;;8252621;28;20472;-77
2020/12/09 18:29:23;;;;;;;66.82;22.98;;;;;;;;;;8254582;28;20357;-77
2020/12/09 18:33:26;;;;;;;58.08;21.75;;;;;;;;;;8255741;28;20494;-78
2020/12/09 18:37:30;;;;;;;54.80;19.83;;;;;;;;;;8256252;28;20468;-77
2020/12/09 18:41:36;;;;;;;50.47;19.33;;;;;;;;;;8254612;28;20532;-75
2020/12/09 18:45:40;;;;;;;47.15;18.50;;;;;;;;;;8253567;28;20071;-77
2020/12/09 18:49:45;;;;;;;48.65;19.08;;;;;;;;;;8253241;28;20053;-76
2020/12/09 18:53:51;;;;;;;49.38;18.52;;;;;;;;;;8236941;28;20464;-77
2020/12/09 18:57:54;;;;;;;45.53;19.05;;;;;;;;;;8237988;28;20460;-76
2020/12/09 19:01:58;;;;;;;47.40;18.73;;;;;;;;;;8254743;28;20510;-77
2020/12/09 19:06:01;;;;;;;49.72;20.83;;;;;;;;;;8253947;28;20460;-77
2020/12/09 19:10:06;;;;;;;45.45;18.50;;;;;;;;;;8235879;28;20529;-76
2020/12/09 19:14:09;;;;;;;44.97;17.77;;;;;;;;;;8253929;28;20067;-77
2020/12/09 19:18:12;;;;;;;45.05;18.58;;;;;;;;;;8254246;28;20383;-76
2020/12/09 19:22:16;;;;;;;54.28;17.73;;;;;;;;;;8253227;28;20553;-76
2020/12/09 19:26:28;;;;;;;47.83;19.35;;;;;;;;;;8256545;28;20407;-77
2020/12/09 19:30:33;;;;;;;37.60;16.17;;;;;;;;;;8242426;28;20398;-77
2020/12/09 19:34:42;;;;;;;49.00;18.38;;;;;;;;;;8253002;28;20510;-77
2020/12/09 19:38:45;;;;;;;57.03;20.05;;;;;;;;;;8256306;28;20049;-76
2020/12/09 19:42:49;;;;;;;47.45;17.98;;;;;;;;;;8288216;28;20074;-77
2020/12/09 19:46:55;;;;;;;45.92;20.15;;;;;;;;;;8240649;28;20452;-77
2020/12/09 19:51:02;;;;;;;55.70;17.27;;;;;;;;;;8260308;28;20503;-78
2020/12/09 19:55:05;;;;;;;42.90;17.60;;;;;;;;;;8209560;28;20383;-77
2020/12/09 19:59:08;;;;;;;51.13;17.88;;;;;;;;;;8281734;28;20459;-76
2020/12/09 20:03:12;;;;;;;44.85;17.67;;;;;;;;;;8293001;28;20382;-76
2020/12/09 20:07:16;;;;;;;40.28;17.10;;;;;;;;;;8294560;28;20348;-77
2020/12/09 20:11:21;;;;;;;117.88;54.47;;;;;;;;;;8292992;28;20053;-77
2020/12/09 20:15:31;;;;;;;1999.90;673.90;;;;;;;;;;8292177;28;20475;-77
2020/12/09 20:19:34;;;;;;;1491.20;834.53;;;;;;;;;;8293170;28;20455;-77
2020/12/09 20:23:43;;;;;;;389.35;139.32;;;;;;;;;;8274926;28;20444;-77
2020/12/09 20:27:46;;;;;;;600.05;181.60;;;;;;;;;;8292133;28;20386;-78
2020/12/09 20:31:51;;;;;;;540.80;140.48;;;;;;;;;;8292226;28;20379;-77
2020/12/09 20:35:55;;;;;;;448.08;121.22;;;;;;;;;;8273707;28;20079;-77
2020/12/09 20:39:58;;;;;;;303.67;80.40;;;;;;;;;;8273988;28;20401;-78
2020/12/09 20:44:08;;;;;;;1278.32;384.08;;;;;;;;;;8239151;28;20459;-77
2020/12/09 20:48:11;;;;;;;821.05;226.68;;;;;;;;;;8290126;28;20418;-77
2020/12/09 20:52:14;;;;;;;1201.57;330.55;;;;;;;;;;8291545;28;20361;-77
2020/12/09 20:56:20;;;;;;;320.25;90.95;;;;;;;;;;8272531;28;20460;-77
2020/12/09 21:00:24;;;;;;;1359.22;362.63;;;;;;;;;;8291359;28;20082;-77
2020/12/09 21:04:27;;;;;;;933.50;246.43;;;;;;;;;;8273324;28;20068;-77
2020/12/09 21:08:30;;;;;;;1205.38;300.85;;;;;;;;;;8290560;28;20390;-78
2020/12/09 21:12:34;;;;;;;751.55;182.27;;;;;;;;;;8289930;28;20386;-77
2020/12/09 21:16:40;;;;;;;386.48;81.50;;;;;;;;;;8257324;28;20403;-77
2020/12/09 21:20:45;;;;;;;436.30;83.85;;;;;;;;;;8257973;28;20470;-77
2020/12/09 21:24:48;;;;;;;852.65;170.27;;;;;;;;;;8257422;28;20474;-77
2020/12/09 21:28:54;;;;;;;957.67;211.63;;;;;;;;;;8256971;28;20399;-77
2020/12/09 21:32:57;;;;;;;624.28;126.65;;;;;;;;;;8256914;28;20118;-77
2020/12/09 21:37:00;;;;;;;643.40;126.47;;;;;;;;;;8257325;28;20479;-77
2020/12/09 21:41:03;;;;;;;911.78;178.95;;;;;;;;;;8255043;28;20052;-77
2020/12/09 21:45:08;;;;;;;1048.25;214.77;;;;;;;;;;8256179;28;20402;-77
2020/12/09 21:49:15;;;;;;;686.40;127.78;;;;;;;;;;8257148;28;20460;-76
2020/12/09 21:53:18;;;;;;;551.10;107.88;;;;;;;;;;8256968;28;20361;-78
2020/12/09 21:57:21;;;;;;;116.20;29.15;;;;;;;;;;8256737;28;20060;-77
2020/12/09 22:01:30;;;;;;;698.92;131.25;;;;;;;;;;8255971;28;20384;-77
2020/12/09 22:05:40;;;;;;;776.95;157.05;;;;;;;;;;8224727;28;20384;-77
2020/12/09 22:09:44;;;;;;;299.10;55.05;;;;;;;;;;8256381;28;20482;-77
2020/12/09 22:13:53;;;;;;;328.88;61.67;;;;;;;;;;8257358;28;20386;-77
2020/12/09 22:17:56;;;;;;;153.77;34.92;;;;;;;;;;8257034;28;20474;-77
2020/12/09 22:22:01;;;;;;;269.40;50.10;;;;;;;;;;8239555;28;20463;-77
2020/12/09 22:26:12;;;;;;;349.25;72.35;;;;;;;;;;8258293;28;20056;-77
2020/12/09 22:30:15;;;;;;;338.90;66.78;;;;;;;;;;8257237;28;20368;-77
2020/12/09 22:34:18;;;;;;;488.92;87.75;;;;;;;;;;8256449;28;20393;-77
2020/12/09 22:38:21;;;;;;;477.73;85.43;;;;;;;;;;8238612;28;20064;-76
2020/12/09 22:42:24;;;;;;;616.65;122.88;;;;;;;;;;8239424;28;20490;-76
2020/12/09 22:46:42;;;;;;;249.13;52.17;;;;;;;;;;8256973;28;20357;-76
2020/12/09 22:51:07;;;;;;;170.80;33.72;;;;;;;;;;8256753;28;20483;-76
2020/12/09 22:55:13;;;;;;;259.10;42.70;;;;;;;;;;8238409;28;20411;-76
2020/12/09 22:59:16;;;;;;;296.98;53.45;;;;;;;;;;8255100;28;20484;-76
2020/12/09 23:03:19;;;;;;;120.55;23.80;;;;;;;;;;8256565;28;20407;-77
2020/12/09 23:07:22;;;;;;;60.25;18.67;;;;;;;;;;8254364;28;20448;-76
2020/12/09 23:11:24;;;;;;;136.60;30.02;;;;;;;;;;8256543;28;20379;-76
2020/12/09 23:15:27;;;;;;;148.70;33.63;;;;;;;;;;8244800;28;20448;-76
2020/12/09 23:19:36;;;;;;;57.92;17.05;;;;;;;;;;8262286;28;20402;-75
2020/12/09 23:23:40;;;;;;;63.22;19.17;;;;;;;;;;8263005;28;20589;-77
2020/12/09 23:27:42;;;;;;;124.53;27.98;;;;;;;;;;8244533;28;20414;-76
2020/12/09 23:31:49;;;;;;;70.22;17.02;;;;;;;;;;8262258;28;20468;-76
2020/12/09 23:35:53;;;;;;;61.42;18.10;;;;;;;;;;8262868;28;20361;-76
2020/12/09 23:39:55;;;;;;;128.98;30.08;;;;;;;;;;8244195;28;20478;-76